createdAt,value
2019-06-15T00:00:31.134Z,18.33
2019-06-15T00:02:59.861Z,18.33
2019-06-15T00:05:28.671Z,16.97
2019-06-15T00:07:57.314Z,17.97
2019-06-15T00:10:28.971Z,16.93
2019-06-15T00:12:57.676Z,17.90
2019-06-15T00:15:26.358Z,17.83
2019-06-15T00:17:55.084Z,16.57
2019-06-15T00:20:23.796Z,18.10
2019-06-15T00:22:53.577Z,17.70
2019-06-15T00:25:22.242Z,18.23
2019-06-15T00:27:50.876Z,18.90
2019-06-15T00:30:20.687Z,16.57
2019-06-15T00:32:49.386Z,18.43
2019-06-15T00:35:18.179Z,16.30
2019-06-15T00:37:47.943Z,17.67
2019-06-15T00:40:16.570Z,17.93
2019-06-15T00:42:48.727Z,18.60
2019-06-15T00:45:17.319Z,18.57
2019-06-15T00:47:45.988Z,18.63
2019-06-15T00:50:14.749Z,16.97
2019-06-15T00:52:43.535Z,16.90
2019-06-15T00:55:12.259Z,17.73
2019-06-15T00:57:40.957Z,18.07
2019-06-15T01:00:10.952Z,17.43
2019-06-15T01:02:39.642Z,17.97
2019-06-15T01:05:08.746Z,18.43
2019-06-15T01:07:37.500Z,17.13
2019-06-15T01:10:07.638Z,17.77
2019-06-15T01:12:36.482Z,18.57
2019-06-15T01:15:05.696Z,17.00
2019-06-15T01:17:34.656Z,18.60
2019-06-15T01:20:03.920Z,20.20
2019-06-15T01:29:20.339Z,17.47
2019-06-15T01:31:49.151Z,19.10
2019-06-15T01:34:27.296Z,18.07
2019-06-15T01:37:02.587Z,18.97
2019-06-15T01:42:41.847Z,18.10
2019-06-15T01:45:32.487Z,17.83
2019-06-15T01:48:01.242Z,17.93
2019-06-15T01:56:33.277Z,17.67
2019-06-15T01:59:02.184Z,16.30
2019-06-15T02:01:31.883Z,15.80
2019-06-15T02:04:00.973Z,18.13
2019-06-15T02:06:30.007Z,15.90
2019-06-15T02:08:59.810Z,16.00
2019-06-15T02:11:28.862Z,16.63
2019-06-15T02:13:57.531Z,20.30
2019-06-15T02:16:26.738Z,18.40
2019-06-15T02:20:20.202Z,18.40
2019-06-15T02:22:12.635Z,17.90
2019-06-15T02:24:43.797Z,19.50
2019-06-15T02:27:20.482Z,18.20
2019-06-15T02:29:49.185Z,18.60
2019-06-15T02:32:18.044Z,20.10
2019-06-15T02:34:47.316Z,19.47
2019-06-15T02:37:16.446Z,18.90
2019-06-15T02:39:45.523Z,19.50
2019-06-15T02:42:14.669Z,19.97
2019-06-15T02:44:43.438Z,19.43
2019-06-15T02:47:12.100Z,20.37
2019-06-15T02:49:40.761Z,20.60
2019-06-15T02:52:10.014Z,18.93
2019-06-15T02:54:38.681Z,20.07
2019-06-15T02:57:07.508Z,20.30
2019-06-15T02:59:36.149Z,21.03
2019-06-15T03:02:04.846Z,19.13
2019-06-15T03:04:33.520Z,19.47
2019-06-15T03:07:02.498Z,20.50
2019-06-15T03:09:31.429Z,20.50
2019-06-15T03:12:00.451Z,20.70
2019-06-15T03:14:32.142Z,20.73
2019-06-15T03:17:00.974Z,21.13
2019-06-15T03:19:29.641Z,21.10
2019-06-15T03:21:58.619Z,19.97
2019-06-15T03:24:27.229Z,20.30
2019-06-15T03:26:57.048Z,19.90
2019-06-15T03:29:25.785Z,20.53
2019-06-15T03:31:54.547Z,20.77
2019-06-15T03:34:23.280Z,21.87
2019-06-15T03:36:51.991Z,21.63
2019-06-15T03:39:20.692Z,20.27
2019-06-15T03:41:52.573Z,22.73
2019-06-15T03:44:40.303Z,22.73
2019-06-15T03:47:09.116Z,21.13
2019-06-15T03:49:40.884Z,21.27
2019-06-15T03:52:09.699Z,21.57
2019-06-15T03:54:38.965Z,23.07
2019-06-15T03:57:07.775Z,20.80
2019-06-15T03:59:36.485Z,22.50
2019-06-15T04:02:07.028Z,22.73
2019-06-15T04:04:36.080Z,23.37
2019-06-15T04:07:04.933Z,22.90
2019-06-15T04:09:33.704Z,21.53
2019-06-15T04:12:02.450Z,20.83
2019-06-15T04:14:31.213Z,22.57
2019-06-15T04:17:00.166Z,22.50
2019-06-15T04:19:28.905Z,22.20
2019-06-15T04:21:57.525Z,20.63
2019-06-15T04:24:26.251Z,22.53
2019-06-15T04:26:55.318Z,21.50
2019-06-15T04:29:27.029Z,20.97
2019-06-15T04:31:57.349Z,21.60
2019-06-15T04:34:26.173Z,21.57
2019-06-15T04:36:57.928Z,20.73
2019-06-15T04:39:27.722Z,22.93
2019-06-15T04:41:56.501Z,20.20
2019-06-15T04:44:27.092Z,21.40
2019-06-15T04:46:55.815Z,19.17
2019-06-15T04:49:24.524Z,20.50
2019-06-15T04:51:54.362Z,18.60
2019-06-15T04:54:23.111Z,19.83
2019-06-15T04:56:51.751Z,18.60
2019-06-15T04:59:20.367Z,19.37
2019-06-15T05:01:49.304Z,19.17
2019-06-15T05:04:18.043Z,18.70
2019-06-15T05:06:46.708Z,17.00
2019-06-15T05:09:18.769Z,16.10
2019-06-15T05:11:47.498Z,17.63
2019-06-15T05:14:16.228Z,17.93
2019-06-15T05:16:44.888Z,16.17
2019-06-15T05:19:13.789Z,18.60
2019-06-15T05:21:42.568Z,17.83
2019-06-15T05:24:11.219Z,18.43
2019-06-15T05:26:39.920Z,17.80
2019-06-15T05:29:08.571Z,17.43
2019-06-15T05:31:37.314Z,16.23
2019-06-15T05:34:06.190Z,21.97
2019-06-15T05:36:34.898Z,20.37
2019-06-15T05:39:05.943Z,18.33
2019-06-15T05:41:34.703Z,18.50
2019-06-15T05:44:03.438Z,19.27
2019-06-15T05:46:32.099Z,21.33
2019-06-15T05:49:00.845Z,17.37
2019-06-15T05:51:29.507Z,18.47
2019-06-15T05:53:58.232Z,20.03
2019-06-15T05:56:27.385Z,20.43
2019-06-15T05:58:56.011Z,20.10
2019-06-15T06:01:28.231Z,20.17
2019-06-15T06:03:57.028Z,20.43
2019-06-15T06:06:25.836Z,19.13
2019-06-15T06:08:54.971Z,19.07
2019-06-15T06:11:24.894Z,18.03
2019-06-15T06:13:53.610Z,18.40
2019-06-15T06:16:22.286Z,19.17
2019-06-15T06:18:50.958Z,17.57
2019-06-15T06:21:20.487Z,18.53
2019-06-15T06:23:49.862Z,17.07
2019-06-15T06:26:18.599Z,20.20
2019-06-15T06:28:56.929Z,17.77
2019-06-15T06:31:18.234Z,19.47
2019-06-15T06:33:46.900Z,18.27
2019-06-15T06:36:19.863Z,18.97
2019-06-15T06:38:48.549Z,17.43
2019-06-15T06:41:17.246Z,19.23
2019-06-15T06:43:45.946Z,16.03
2019-06-15T06:46:14.730Z,17.53
2019-06-15T06:48:43.572Z,17.27
2019-06-15T06:51:12.357Z,17.53
2019-06-15T06:53:41.070Z,17.37
2019-06-15T06:56:09.833Z,17.53
2019-06-15T06:58:38.496Z,16.67
2019-06-15T07:01:07.256Z,16.30
2019-06-15T07:03:35.970Z,17.43
2019-06-15T07:06:04.905Z,15.50
2019-06-15T07:08:33.619Z,16.33
2019-06-15T07:11:02.483Z,15.97
2019-06-15T07:13:31.192Z,17.67
2019-06-15T07:15:59.966Z,15.20
2019-06-15T07:18:29.378Z,16.67
2019-06-15T07:20:58.088Z,16.60
2019-06-15T07:23:26.740Z,17.20
2019-06-15T07:25:55.581Z,15.90
2019-06-15T07:28:24.386Z,17.53
2019-06-15T07:30:53.252Z,16.90
2019-06-15T07:33:21.937Z,16.73
2019-06-15T07:35:50.633Z,16.13
2019-06-15T07:38:19.251Z,15.97
2019-06-15T07:40:47.877Z,15.87
2019-06-15T07:43:16.542Z,14.20
2019-06-15T07:45:45.407Z,15.73
2019-06-15T07:48:14.275Z,18.93
2019-06-15T07:50:43.048Z,18.47
2019-06-15T07:53:11.785Z,17.70
2019-06-15T07:55:40.593Z,17.90
2019-06-15T07:58:23.608Z,15.87
2019-06-15T08:00:41.017Z,16.47
2019-06-15T08:03:09.821Z,16.90
2019-06-15T08:05:38.675Z,16.17
2019-06-15T08:08:07.641Z,15.83
2019-06-15T08:10:36.434Z,17.47
2019-06-15T08:13:05.119Z,16.00
2019-06-15T08:15:33.912Z,15.67
2019-06-15T08:18:02.653Z,18.83
2019-06-15T08:20:33.239Z,18.00
2019-06-15T08:23:02.064Z,20.47
2019-06-15T08:25:30.827Z,20.40
2019-06-15T08:27:59.535Z,15.70
2019-06-15T08:30:32.129Z,13.10
2019-06-15T08:33:03.685Z,11.07
2019-06-15T08:35:35.104Z,11.20
2019-06-15T08:38:04.153Z,11.03
2019-06-15T08:40:35.194Z,12.17
2019-06-15T08:43:05.023Z,10.63
2019-06-15T08:45:33.894Z,10.53
2019-06-15T08:48:02.711Z,11.23
2019-06-15T08:50:51.144Z,11.83
2019-06-15T08:53:19.966Z,11.00
2019-06-15T08:55:49.786Z,10.43
2019-06-15T08:58:18.482Z,10.80
2019-06-15T09:00:47.826Z,10.97
2019-06-15T09:03:16.471Z,11.37
2019-06-15T09:05:45.210Z,10.97
2019-06-15T09:08:13.907Z,11.07
2019-06-15T09:10:42.637Z,10.90
2019-06-15T09:13:11.436Z,9.80
2019-06-15T09:15:45.368Z,10.13
2019-06-15T09:18:13.972Z,11.00
2019-06-15T09:20:44.357Z,9.73
2019-06-15T09:23:15.399Z,10.07
2019-06-15T09:25:46.029Z,9.47
2019-06-15T09:28:16.457Z,8.47
2019-06-15T09:30:47.312Z,10.07
2019-06-15T09:33:17.304Z,9.33
2019-06-15T09:35:47.761Z,9.07
2019-06-15T09:38:17.641Z,9.40
2019-06-15T09:40:47.762Z,9.83
2019-06-15T09:43:17.373Z,10.13
2019-06-15T09:45:47.144Z,9.93
2019-06-15T09:48:18.475Z,8.57
2019-06-15T09:50:48.244Z,10.00
2019-06-15T09:53:18.153Z,9.77
2019-06-15T09:55:48.281Z,9.57
2019-06-15T09:58:18.100Z,8.67
2019-06-15T10:00:48.130Z,9.10
2019-06-15T10:03:20.679Z,9.50
2019-06-15T10:05:59.159Z,9.63
2019-06-15T10:08:29.928Z,9.23
2019-06-15T10:11:00.146Z,9.33
2019-06-15T10:13:31.541Z,10.13
2019-06-15T10:16:01.851Z,9.80
2019-06-15T10:18:31.745Z,9.50
2019-06-15T10:21:01.752Z,9.60
2019-06-15T10:23:32.167Z,8.30
2019-06-15T10:26:01.883Z,9.00
2019-06-15T10:28:32.114Z,8.90
2019-06-15T10:31:02.020Z,8.50
2019-06-15T10:33:31.731Z,8.37
2019-06-15T10:36:02.065Z,8.80
2019-06-15T10:38:32.070Z,8.20
2019-06-15T10:41:03.558Z,7.90
2019-06-15T10:43:34.047Z,7.47
2019-06-15T10:46:04.530Z,7.87
2019-06-15T10:48:34.705Z,7.37
2019-06-15T10:51:04.815Z,7.83
2019-06-15T10:53:34.731Z,8.43
2019-06-15T10:56:04.759Z,7.47
2019-06-15T10:58:35.280Z,7.60
2019-06-15T11:01:05.702Z,8.30
2019-06-15T11:03:35.641Z,7.37
2019-06-15T11:06:05.735Z,7.90
2019-06-15T11:08:35.753Z,8.23
2019-06-15T11:11:15.702Z,7.70
2019-06-15T11:13:45.714Z,7.97
2019-06-15T11:16:15.834Z,7.83
2019-06-15T11:18:45.655Z,8.57
2019-06-15T11:21:15.460Z,8.80
2019-06-15T11:23:45.376Z,8.57
2019-06-15T11:26:15.818Z,7.30
2019-06-15T11:28:45.714Z,7.97
2019-06-15T11:31:16.607Z,7.73
2019-06-15T11:33:46.770Z,7.17
2019-06-15T11:36:16.890Z,7.30
2019-06-15T11:38:46.826Z,6.97
2019-06-15T11:41:17.137Z,7.10
2019-06-15T11:43:46.838Z,7.53
2019-06-15T11:46:16.957Z,6.53
2019-06-15T11:48:46.886Z,8.07
2019-06-15T11:51:17.294Z,6.87
2019-06-15T11:53:50.498Z,7.10
2019-06-15T11:56:20.819Z,6.87
2019-06-15T11:58:51.030Z,7.60
2019-06-15T12:01:21.686Z,7.80
2019-06-15T12:03:51.784Z,7.70
2019-06-15T12:06:21.695Z,7.47
2019-06-15T12:08:52.432Z,7.10
2019-06-15T12:11:22.347Z,7.17
2019-06-15T12:13:52.467Z,7.13
2019-06-15T12:16:22.692Z,7.50
2019-06-15T12:18:52.701Z,7.50
2019-06-15T12:21:23.038Z,6.63
2019-06-15T12:23:53.887Z,8.00
2019-06-15T12:26:24.408Z,6.93
2019-06-15T12:28:55.236Z,6.37
2019-06-15T12:31:25.760Z,6.73
2019-06-15T12:33:55.768Z,5.57
2019-06-15T12:36:25.684Z,6.20
2019-06-15T12:38:55.495Z,6.23
2019-06-15T12:41:25.934Z,5.93
2019-06-15T12:43:55.840Z,7.07
2019-06-15T12:46:25.753Z,6.53
2019-06-15T12:48:55.147Z,7.00
2019-06-15T12:51:25.067Z,7.50
2019-06-15T12:53:55.126Z,7.43
2019-06-15T12:56:25.408Z,7.10
2019-06-15T12:58:54.811Z,8.03
2019-06-15T13:01:27.292Z,7.87
2019-06-15T13:03:57.526Z,7.97
2019-06-15T13:06:27.730Z,7.63
2019-06-15T13:08:57.449Z,8.63
2019-06-15T13:11:26.946Z,6.80
2019-06-15T13:13:57.060Z,6.40
2019-06-15T13:16:38.610Z,5.53
2019-06-15T13:18:58.451Z,6.47
2019-06-15T13:21:28.762Z,5.70
2019-06-15T13:23:58.134Z,5.73
2019-06-15T13:26:27.986Z,5.70
2019-06-15T13:28:57.994Z,5.67
2019-06-15T13:31:27.891Z,5.17
2019-06-15T13:33:57.512Z,5.77
2019-06-15T13:36:27.217Z,5.77
2019-06-15T13:38:57.210Z,5.17
2019-06-15T13:41:27.794Z,5.93
2019-06-15T13:43:57.143Z,6.07
2019-06-15T13:46:27.074Z,5.53
2019-06-15T13:48:57.313Z,4.93
2019-06-15T13:51:27.426Z,6.10
2019-06-15T13:53:57.580Z,5.63
2019-06-15T13:56:27.443Z,5.43
2019-06-15T13:58:57.464Z,5.37
2019-06-15T14:01:34.200Z,5.70
2019-06-15T14:03:58.753Z,5.70
2019-06-15T14:06:28.888Z,5.30
2019-06-15T14:08:59.130Z,5.80
2019-06-15T14:11:28.977Z,5.43
2019-06-15T14:13:59.427Z,5.50
2019-06-15T14:16:30.441Z,6.00
2019-06-15T14:19:00.769Z,5.00
2019-06-15T14:21:30.479Z,5.30
2019-06-15T14:24:00.922Z,5.47
2019-06-15T14:26:30.919Z,5.10
2019-06-15T14:29:00.729Z,5.03
2019-06-15T14:31:30.759Z,4.93
2019-06-15T14:34:00.876Z,5.93
2019-06-15T14:36:30.771Z,5.30
2019-06-15T14:39:00.738Z,5.50
2019-06-15T14:41:31.122Z,6.03
2019-06-15T14:44:01.038Z,5.67
2019-06-15T14:46:31.153Z,6.53
2019-06-15T14:49:01.480Z,6.27
2019-06-15T14:51:31.487Z,5.67
2019-06-15T14:54:01.513Z,5.40
2019-06-15T14:56:31.740Z,5.67
2019-06-15T14:59:02.052Z,5.90
2019-06-15T15:01:34.767Z,6.17
2019-06-15T15:04:03.321Z,5.90
2019-06-15T15:06:33.131Z,5.07
2019-06-15T15:09:03.251Z,5.03
2019-06-15T15:11:33.474Z,5.83
2019-06-15T15:14:03.488Z,5.80
2019-06-15T15:16:33.302Z,6.10
2019-06-15T15:19:06.119Z,5.53
2019-06-15T15:21:38.144Z,6.17
2019-06-15T15:24:09.287Z,5.80
2019-06-15T15:26:39.930Z,6.27
2019-06-15T15:29:09.845Z,6.53
2019-06-15T15:31:40.709Z,5.97
2019-06-15T15:34:11.507Z,6.40
2019-06-15T15:36:41.521Z,7.77
2019-06-15T15:39:11.648Z,6.63
2019-06-15T15:41:41.348Z,7.20
2019-06-15T15:44:11.162Z,6.43
2019-06-15T15:46:41.886Z,6.20
2019-06-15T15:49:11.709Z,6.10
2019-06-15T15:51:42.033Z,6.50
2019-06-15T15:54:12.144Z,6.13
2019-06-15T15:56:42.063Z,6.30
2019-06-15T15:59:12.796Z,7.03
2019-06-15T16:01:45.975Z,7.07
2019-06-15T16:04:17.047Z,6.70
2019-06-15T16:06:47.262Z,6.40
2019-06-15T16:09:17.461Z,6.60
2019-06-15T16:11:47.478Z,6.47
2019-06-15T16:14:17.814Z,7.00
2019-06-15T16:16:47.941Z,9.33
2019-06-15T16:19:17.947Z,7.87
2019-06-15T16:21:48.376Z,8.17
2019-06-15T16:24:18.806Z,7.37
2019-06-15T16:26:49.127Z,8.47
2019-06-15T16:29:20.884Z,7.13
2019-06-15T16:31:50.795Z,6.73
2019-06-15T16:34:23.908Z,6.93
2019-06-15T16:36:56.893Z,7.87
2019-06-15T16:39:27.062Z,6.40
2019-06-15T16:42:01.426Z,9.70
2019-06-15T16:50:28.181Z,6.87
2019-06-15T16:52:59.872Z,6.93
2019-06-15T16:55:30.267Z,8.00
2019-06-15T16:58:00.396Z,7.07
2019-06-15T17:00:32.802Z,5.70
2019-06-15T17:03:17.455Z,6.43
2019-06-15T17:05:36.222Z,8.83
2019-06-15T17:08:06.956Z,7.30
2019-06-15T17:10:39.481Z,7.50
2019-06-15T17:13:09.828Z,9.67
2019-06-15T17:15:39.939Z,8.30
2019-06-15T17:18:11.476Z,44.27
2019-06-15T18:33:16.338Z,5.60
2019-06-15T18:56:56.660Z,5.43
2019-06-15T18:59:28.532Z,5.10
2019-06-15T19:01:59.146Z,6.20
2019-06-15T19:04:35.427Z,5.83
2019-06-15T19:07:06.624Z,7.03
2019-06-15T19:09:37.717Z,6.07
2019-06-15T19:12:09.568Z,5.13
2019-06-15T19:14:39.815Z,5.13
2019-06-15T19:22:49.675Z,6.63
2019-06-15T20:17:29.764Z,5.23
2019-06-15T20:20:00.297Z,5.07
2019-06-15T20:22:31.129Z,4.27
2019-06-15T20:25:03.500Z,5.30
2019-06-15T20:27:37.478Z,5.43
2019-06-15T20:30:07.442Z,4.77
2019-06-15T20:32:41.848Z,4.53
2019-06-15T20:35:20.956Z,4.67
2019-06-15T20:37:48.120Z,4.00
2019-06-15T20:40:23.155Z,4.73
2019-06-15T20:42:57.012Z,3.80
2019-06-15T21:02:43.273Z,5.80
2019-06-15T21:05:32.378Z,4.47
2019-06-15T21:07:46.774Z,5.60
2019-06-15T21:10:17.521Z,5.03
2019-06-15T21:12:47.640Z,5.17
2019-06-15T21:15:18.266Z,4.77
2019-06-15T21:17:48.899Z,5.63
2019-06-15T21:20:19.122Z,5.17
2019-06-15T21:22:49.153Z,4.57
2019-06-15T21:25:19.260Z,4.63
2019-06-15T21:27:49.684Z,6.33
2019-06-15T21:30:19.700Z,6.10
2019-06-15T21:32:49.511Z,6.07
2019-06-15T21:35:48.950Z,6.07
2019-06-15T21:38:10.125Z,7.20
2019-06-15T21:40:40.140Z,5.37
2019-06-15T21:43:10.153Z,4.83
2019-06-15T21:45:41.520Z,4.77
2019-06-15T21:48:11.737Z,5.57
2019-06-15T21:50:41.746Z,5.57
2019-06-15T21:53:11.469Z,5.00
2019-06-15T21:55:41.473Z,5.50
2019-06-15T21:58:11.174Z,6.27
2019-06-15T22:00:50.719Z,6.00
2019-06-15T22:03:20.839Z,5.90
2019-06-15T22:06:02.707Z,5.80
2019-06-15T22:08:22.513Z,4.80
2019-06-15T22:10:52.545Z,5.27
2019-06-15T22:13:22.339Z,5.80
2019-06-15T22:15:52.867Z,5.47
2019-06-15T22:18:23.501Z,5.83
2019-06-15T22:20:53.524Z,5.30
2019-06-15T22:23:23.847Z,6.50
2019-06-15T22:25:53.651Z,6.93
2019-06-15T22:28:23.572Z,6.07
2019-06-15T22:30:53.788Z,5.90
2019-06-15T22:33:23.829Z,7.77
2019-06-15T22:35:56.313Z,6.23
2019-06-15T22:38:27.961Z,7.10
2019-06-15T22:40:57.745Z,7.63
2019-06-15T22:43:27.970Z,5.70
2019-06-15T22:45:58.153Z,5.77
2019-06-15T22:48:28.107Z,5.60
2019-06-15T22:50:58.431Z,5.53
2019-06-15T22:53:28.566Z,7.80
2019-06-15T22:55:58.462Z,6.77
2019-06-15T22:58:28.787Z,7.27
2019-06-15T23:00:58.798Z,6.67
2019-06-15T23:03:28.507Z,7.60
2019-06-15T23:05:58.522Z,7.03
2019-06-15T23:08:28.652Z,7.40
2019-06-15T23:10:58.888Z,8.07
2019-06-15T23:13:28.784Z,6.70
2019-06-15T23:15:59.107Z,7.40
2019-06-15T23:18:29.142Z,6.50
2019-06-15T23:20:58.833Z,8.53
2019-06-15T23:23:28.742Z,6.93
2019-06-15T23:25:59.156Z,9.53
2019-06-15T23:28:29.826Z,6.20
2019-06-15T23:30:59.926Z,8.00
2019-06-15T23:33:30.868Z,6.50
2019-06-15T23:36:06.394Z,6.83
2019-06-15T23:38:37.747Z,7.00
2019-06-15T23:41:09.717Z,8.10
2019-06-15T23:43:40.143Z,6.00
2019-06-15T23:46:11.498Z,6.30
2019-06-15T23:48:42.736Z,5.80
2019-06-15T23:51:13.468Z,6.83
2019-06-15T23:53:46.236Z,5.67
2019-06-15T23:56:17.697Z,6.57
2019-06-15T23:58:48.438Z,7.23
